createdAt,value
2018-08-16T00:02:34.459Z,20.00
2018-08-16T00:05:16.358Z,19.80
2018-08-16T00:16:22.009Z,19.80
2018-08-16T00:18:49.948Z,19.70
2018-08-16T00:21:17.970Z,19.80
2018-08-16T00:23:45.705Z,19.60
2018-08-16T00:26:13.460Z,19.70
2018-08-16T00:28:41.272Z,19.70
2018-08-16T00:31:09.016Z,19.60
2018-08-16T00:33:36.769Z,19.60
2018-08-16T00:36:04.685Z,19.60
2018-08-16T00:38:32.416Z,19.60
2018-08-16T00:41:09.538Z,19.60
2018-08-16T00:43:48.978Z,19.40
2018-08-16T00:46:28.419Z,19.40
2018-08-16T00:49:08.439Z,19.30
2018-08-16T00:51:49.750Z,19.30
2018-08-16T00:54:30.181Z,19.10
2018-08-16T00:57:08.935Z,19.20
2018-08-16T00:59:47.967Z,19.10
2018-08-16T01:02:15.821Z,19.20
2018-08-16T01:07:23.140Z,19.10
2018-08-16T01:09:50.933Z,19.10
2018-08-16T01:12:18.720Z,18.90
2018-08-16T01:14:46.496Z,18.90
2018-08-16T01:17:14.476Z,18.90
2018-08-16T01:19:42.245Z,18.80
2018-08-16T01:22:10.364Z,18.90
2018-08-16T01:24:38.441Z,18.90
2018-08-16T01:27:06.341Z,18.80
2018-08-16T01:29:34.133Z,18.90
2018-08-16T01:32:01.997Z,18.80
2018-08-16T01:34:30.112Z,18.70
2018-08-16T01:36:57.962Z,18.90
2018-08-16T01:39:25.696Z,18.80
2018-08-16T01:42:04.954Z,18.90
2018-08-16T01:50:22.877Z,18.60
2018-08-16T01:52:50.689Z,18.70
2018-08-16T01:55:18.413Z,18.70
2018-08-16T01:57:46.188Z,18.70
2018-08-16T02:00:14.013Z,18.70
2018-08-16T02:02:41.868Z,18.80
2018-08-16T02:05:10.978Z,18.80
2018-08-16T02:07:38.753Z,18.80
2018-08-16T02:10:07.424Z,18.70
2018-08-16T02:12:35.288Z,18.60
2018-08-16T02:15:18.162Z,18.60
2018-08-16T02:17:57.522Z,18.80
2018-08-16T02:20:26.220Z,18.60
2018-08-16T02:22:53.996Z,18.70
2018-08-16T02:25:33.569Z,18.60
2018-08-16T02:28:11.925Z,18.50
2018-08-16T02:30:52.906Z,18.30
2018-08-16T02:33:21.001Z,18.30
2018-08-16T02:35:48.733Z,18.30
2018-08-16T02:38:16.540Z,18.30
2018-08-16T02:40:44.341Z,18.30
2018-08-16T02:43:12.065Z,18.40
2018-08-16T02:45:41.134Z,18.30
2018-08-16T02:48:09.253Z,18.30
2018-08-16T02:50:37.037Z,18.20
2018-08-16T02:53:04.921Z,18.30
2018-08-16T02:55:32.694Z,18.20
2018-08-16T02:58:00.505Z,18.20
2018-08-16T03:00:28.305Z,18.30
2018-08-16T03:02:56.065Z,18.40
2018-08-16T03:05:23.838Z,18.40
2018-08-16T03:07:51.595Z,18.40
2018-08-16T03:10:19.352Z,18.30
2018-08-16T03:12:47.153Z,18.40
2018-08-16T03:15:15.185Z,18.30
2018-08-16T03:17:43.022Z,18.30
2018-08-16T03:20:10.784Z,18.30
2018-08-16T03:22:38.512Z,18.30
2018-08-16T03:25:06.344Z,18.20
2018-08-16T03:27:34.080Z,18.10
2018-08-16T03:30:01.874Z,18.00
2018-08-16T03:32:29.689Z,18.00
2018-08-16T03:34:57.464Z,17.90
2018-08-16T03:37:25.219Z,18.00
2018-08-16T03:39:53.015Z,17.90
2018-08-16T03:42:20.912Z,17.90
2018-08-16T03:44:48.674Z,17.80
2018-08-16T03:47:16.485Z,17.80
2018-08-16T03:49:44.208Z,17.80
2018-08-16T03:52:12.265Z,17.70
2018-08-16T03:54:40.102Z,17.60
2018-08-16T03:57:08.101Z,17.50
2018-08-16T03:59:35.872Z,17.70
2018-08-16T04:02:03.705Z,17.60
2018-08-16T04:04:33.528Z,17.60
2018-08-16T04:07:01.318Z,17.40
2018-08-16T04:09:41.924Z,17.40
2018-08-16T04:12:22.091Z,17.40
2018-08-16T04:15:03.568Z,17.40
2018-08-16T04:17:43.798Z,17.40
2018-08-16T04:20:24.156Z,17.50
2018-08-16T04:23:06.494Z,17.50
2018-08-16T04:25:43.866Z,17.50
2018-08-16T04:28:25.227Z,17.60
2018-08-16T04:31:05.589Z,17.60
2018-08-16T04:51:01.679Z,17.50
2018-08-16T04:53:39.879Z,17.50
2018-08-16T04:56:17.166Z,17.50
2018-08-16T04:58:53.539Z,17.40
2018-08-16T05:01:27.909Z,17.40
2018-08-16T05:03:55.644Z,17.50
2018-08-16T05:06:36.427Z,17.50
2018-08-16T05:09:06.800Z,17.50
2018-08-16T05:11:47.378Z,17.50
2018-08-16T05:14:15.857Z,17.50
2018-08-16T05:16:55.913Z,17.50
2018-08-16T05:19:34.457Z,17.50
2018-08-16T05:22:02.280Z,17.50
2018-08-16T05:24:39.073Z,17.50
2018-08-16T05:30:12.725Z,17.70
2018-08-16T05:32:40.788Z,17.70
2018-08-16T05:35:08.678Z,17.80
2018-08-16T05:37:50.121Z,17.70
2018-08-16T05:40:28.944Z,17.90
2018-08-16T05:43:06.881Z,17.90
2018-08-16T05:45:48.890Z,18.00
2018-08-16T05:48:28.391Z,18.00
2018-08-16T05:51:20.659Z,18.00
2018-08-16T05:53:48.420Z,18.10
2018-08-16T05:56:28.364Z,18.30
2018-08-16T06:01:47.217Z,19.00
2018-08-16T06:04:29.731Z,19.10
2018-08-16T06:06:58.233Z,19.30
2018-08-16T06:09:26.020Z,19.50
2018-08-16T06:12:04.697Z,20.00
2018-08-16T06:14:41.064Z,20.10
2018-08-16T06:17:09.108Z,20.50
2018-08-16T06:19:36.872Z,20.80
2018-08-16T06:22:04.694Z,21.10
2018-08-16T06:24:32.456Z,21.10
2018-08-16T06:27:00.253Z,21.50
2018-08-16T06:29:28.091Z,21.90
2018-08-16T06:31:55.851Z,22.10
2018-08-16T06:34:31.673Z,22.50
2018-08-16T06:37:14.606Z,22.70
2018-08-16T06:39:43.267Z,23.20
2018-08-16T06:42:11.156Z,23.20
2018-08-16T06:44:38.908Z,23.40
2018-08-16T06:47:06.754Z,23.90
2018-08-16T06:49:41.665Z,24.20
2018-08-16T06:52:22.703Z,24.30
2018-08-16T06:55:00.595Z,24.50
2018-08-16T06:57:40.037Z,24.80
2018-08-16T07:00:19.475Z,24.60
2018-08-16T07:02:47.903Z,25.00
2018-08-16T07:05:15.689Z,25.00
2018-08-16T07:07:50.214Z,25.20
2018-08-16T07:10:34.500Z,25.30
2018-08-16T07:21:53.417Z,25.70
2018-08-16T07:24:33.814Z,25.90
2018-08-16T07:27:13.825Z,25.70
2018-08-16T07:29:52.049Z,26.20
2018-08-16T07:32:26.865Z,26.50
2018-08-16T07:34:55.217Z,26.50
2018-08-16T07:37:36.530Z,26.30
2018-08-16T07:43:06.001Z,26.80
2018-08-16T07:45:40.718Z,26.90
2018-08-16T07:48:20.715Z,27.10
2018-08-16T07:51:01.749Z,27.30
2018-08-16T07:59:27.223Z,28.10
2018-08-16T08:01:58.653Z,28.40
2018-08-16T08:04:26.381Z,28.40
2018-08-16T08:06:54.309Z,28.60
2018-08-16T08:09:22.182Z,28.80
2018-08-16T08:11:59.965Z,29.10
2018-08-16T08:14:31.416Z,29.40
2018-08-16T08:16:59.197Z,29.80
2018-08-16T08:19:27.265Z,30.20
2018-08-16T08:21:55.258Z,30.40
2018-08-16T08:24:32.966Z,30.60
2018-08-16T08:27:14.247Z,30.70
2018-08-16T08:29:53.319Z,31.00
2018-08-16T08:32:32.671Z,31.40
2018-08-16T08:35:04.844Z,31.70
2018-08-16T08:37:43.839Z,32.00
2018-08-16T08:40:11.633Z,32.20
2018-08-16T08:42:39.397Z,32.30
2018-08-16T08:45:07.357Z,32.50
2018-08-16T08:47:40.649Z,32.70
2018-08-16T08:50:09.407Z,32.90
2018-08-16T08:52:37.232Z,33.10
2018-08-16T08:55:16.044Z,33.10
2018-08-16T08:58:05.158Z,33.20
2018-08-16T09:00:40.578Z,33.30
2018-08-16T09:03:16.961Z,33.50
2018-08-16T09:05:52.403Z,33.60
2018-08-16T09:08:32.455Z,33.80
2018-08-16T09:11:20.960Z,33.90
2018-08-16T09:14:08.539Z,34.00
2018-08-16T09:16:47.974Z,34.10
2018-08-16T09:19:28.334Z,34.20
2018-08-16T09:22:08.489Z,34.30
2018-08-16T09:24:46.291Z,34.20
2018-08-16T09:27:26.343Z,34.30
2018-08-16T09:30:23.913Z,34.20
2018-08-16T09:41:48.120Z,34.70
2018-08-16T09:44:28.714Z,34.60
2018-08-16T09:47:14.854Z,34.80
2018-08-16T09:49:54.349Z,34.80
2018-08-16T09:52:36.573Z,34.90
2018-08-16T09:58:16.627Z,34.80
2018-08-16T10:00:57.602Z,34.80
2018-08-16T10:03:40.085Z,34.90
2018-08-16T10:06:22.455Z,35.00
2018-08-16T10:09:03.827Z,35.00
2018-08-16T10:11:48.566Z,35.10
2018-08-16T10:14:27.698Z,35.30
2018-08-16T10:17:10.922Z,35.40
2018-08-16T10:28:30.662Z,35.50
2018-08-16T10:31:11.027Z,35.60
2018-08-16T10:33:47.228Z,35.60
2018-08-16T10:42:17.399Z,35.60
2018-08-16T10:47:54.230Z,35.90
2018-08-16T10:53:20.290Z,35.80
2018-08-16T10:56:01.270Z,35.60
2018-08-16T10:58:48.999Z,35.60
2018-08-16T11:01:31.033Z,35.80
2018-08-16T11:03:58.945Z,35.90
2018-08-16T11:06:26.735Z,36.00
2018-08-16T11:08:54.552Z,36.30
2018-08-16T11:11:22.296Z,36.40
2018-08-16T11:13:50.032Z,36.50
2018-08-16T11:16:17.793Z,36.70
2018-08-16T11:18:45.587Z,36.50
2018-08-16T11:21:21.920Z,36.50
2018-08-16T11:24:02.140Z,36.60
2018-08-16T11:26:41.727Z,36.80
2018-08-16T11:29:19.899Z,37.00
2018-08-16T11:32:01.265Z,37.30
2018-08-16T11:34:45.872Z,37.40
2018-08-16T11:37:31.675Z,37.60
2018-08-16T11:40:10.590Z,37.80
2018-08-16T11:42:39.296Z,37.90
2018-08-16T11:45:17.109Z,38.00
2018-08-16T11:47:44.892Z,38.10
2018-08-16T11:50:19.155Z,38.40
2018-08-16T11:52:47.214Z,38.50
2018-08-16T11:55:14.998Z,38.60
2018-08-16T11:57:54.737Z,38.90
2018-08-16T12:00:36.201Z,38.90
2018-08-16T12:03:04.207Z,39.10
2018-08-16T12:05:46.980Z,39.30
2018-08-16T12:08:27.291Z,39.50
2018-08-16T12:10:55.097Z,39.60
2018-08-16T12:13:22.852Z,39.80
2018-08-16T12:16:03.337Z,39.70
2018-08-16T12:21:40.775Z,39.80
2018-08-16T12:24:17.453Z,39.70
2018-08-16T12:26:56.581Z,39.70
2018-08-16T12:29:36.633Z,39.80
2018-08-16T12:32:17.660Z,39.80
2018-08-16T12:34:56.446Z,39.90
2018-08-16T12:37:41.749Z,39.80
2018-08-16T12:40:22.768Z,39.70
2018-08-16T12:43:02.217Z,39.70
2018-08-16T12:45:30.155Z,39.80
2018-08-16T12:48:05.023Z,39.80
2018-08-16T12:50:44.461Z,40.10
2018-08-16T12:53:20.826Z,40.00
2018-08-16T12:56:05.027Z,39.90
2018-08-16T12:58:44.313Z,40.00
2018-08-16T13:01:23.143Z,40.00
2018-08-16T13:04:05.228Z,40.00
2018-08-16T13:06:41.499Z,40.00
2018-08-16T13:09:18.071Z,40.00
2018-08-16T13:11:46.430Z,40.20
2018-08-16T13:14:21.895Z,40.10
2018-08-16T13:17:03.181Z,39.90
2018-08-16T13:19:31.727Z,39.90
2018-08-16T13:22:19.905Z,39.90
2018-08-16T13:24:48.309Z,39.90
2018-08-16T13:27:27.461Z,39.80
2018-08-16T13:30:06.635Z,39.80
2018-08-16T13:32:47.212Z,39.70
2018-08-16T13:35:28.495Z,39.70
2018-08-16T13:38:11.012Z,39.80
2018-08-16T13:40:55.364Z,39.80
2018-08-16T13:43:23.394Z,39.70
2018-08-16T13:46:05.733Z,39.50
2018-08-16T13:48:34.577Z,39.40
2018-08-16T13:51:14.405Z,39.20
2018-08-16T13:53:42.200Z,39.10
2018-08-16T13:56:28.337Z,38.90
2018-08-16T14:02:01.818Z,38.90
2018-08-16T14:04:35.313Z,38.80
2018-08-16T14:09:55.885Z,38.50
2018-08-16T14:12:23.817Z,38.20
2018-08-16T14:15:03.590Z,38.00
2018-08-16T14:17:49.988Z,37.80
2018-08-16T14:20:27.585Z,37.50
2018-08-16T14:23:06.713Z,37.20
2018-08-16T14:25:47.959Z,36.90
2018-08-16T14:28:25.590Z,36.60
2018-08-16T14:31:04.689Z,36.30
2018-08-16T14:33:47.231Z,35.90
2018-08-16T14:36:25.554Z,35.50
2018-08-16T14:38:53.389Z,35.20
2018-08-16T14:41:21.088Z,34.90
2018-08-16T14:43:48.837Z,34.60
2018-08-16T14:46:16.632Z,34.40
2018-08-16T14:48:44.380Z,34.10
2018-08-16T14:51:12.239Z,33.80
2018-08-16T14:53:53.928Z,33.60
2018-08-16T14:56:31.214Z,33.40
2018-08-16T14:59:11.579Z,33.20
2018-08-16T15:01:54.773Z,33.00
2018-08-16T15:04:32.294Z,32.80
2018-08-16T15:07:00.932Z,32.70
2018-08-16T15:09:28.709Z,32.60
2018-08-16T15:11:56.585Z,32.40
2018-08-16T15:14:24.417Z,32.40
2018-08-16T15:16:52.203Z,32.30
2018-08-16T15:19:19.977Z,32.30
2018-08-16T15:21:47.781Z,32.30
2018-08-16T15:24:30.084Z,32.20
2018-08-16T15:27:12.087Z,32.10
2018-08-16T15:29:53.436Z,32.00
2018-08-16T15:32:36.789Z,32.00
2018-08-16T15:35:05.014Z,31.90
2018-08-16T15:37:32.805Z,31.90
2018-08-16T15:40:00.529Z,31.80
2018-08-16T15:42:28.336Z,31.80
2018-08-16T15:45:09.437Z,31.70
2018-08-16T15:47:38.244Z,31.70
2018-08-16T15:55:52.006Z,31.50
2018-08-16T15:58:31.209Z,31.50
2018-08-16T16:01:07.196Z,31.50
2018-08-16T16:03:49.092Z,31.40
2018-08-16T16:06:32.408Z,31.40
2018-08-16T16:09:09.813Z,31.40
2018-08-16T16:11:49.027Z,31.30
2018-08-16T16:14:28.348Z,31.20
2018-08-16T16:25:49.937Z,31.10
2018-08-16T16:28:30.123Z,31.10
2018-08-16T16:31:09.865Z,31.10
2018-08-16T16:33:51.150Z,31.00
2018-08-16T16:36:21.712Z,31.00
2018-08-16T16:38:49.502Z,30.90
2018-08-16T16:41:17.457Z,30.80
2018-08-16T16:43:45.306Z,30.70
2018-08-16T16:46:13.065Z,30.70
2018-08-16T16:48:54.637Z,30.60
2018-08-16T16:51:36.530Z,30.50
2018-08-16T16:54:15.044Z,30.40
2018-08-16T16:56:56.325Z,30.30
2018-08-16T17:02:16.041Z,30.30
2018-08-16T17:04:52.183Z,30.20
2018-08-16T17:07:31.466Z,30.10
2018-08-16T17:10:10.445Z,30.00
2018-08-16T17:12:38.993Z,30.10
2018-08-16T17:15:20.725Z,29.90
2018-08-16T17:18:01.655Z,29.80
2018-08-16T17:20:29.464Z,29.70
2018-08-16T17:23:19.221Z,29.60
2018-08-16T17:25:55.456Z,29.60
2018-08-16T17:28:35.764Z,29.50
2018-08-16T17:31:14.894Z,29.40
2018-08-16T17:36:57.736Z,29.30
2018-08-16T17:54:10.833Z,28.80
2018-08-16T17:56:52.448Z,28.70
2018-08-16T17:59:33.553Z,28.70
2018-08-16T18:02:01.364Z,28.60
2018-08-16T18:04:43.241Z,28.50
2018-08-16T18:07:11.077Z,28.40
2018-08-16T18:09:51.208Z,28.30
2018-08-16T18:12:19.657Z,28.30
2018-08-16T18:14:59.947Z,28.20
2018-08-16T18:17:47.680Z,28.10
2018-08-16T18:20:15.759Z,28.00
2018-08-16T18:22:57.954Z,27.90
2018-08-16T18:25:42.097Z,27.80
2018-08-16T18:28:22.361Z,27.70
2018-08-16T18:31:02.817Z,27.70
2018-08-16T18:33:34.017Z,27.60
2018-08-16T18:36:12.690Z,27.40
2018-08-16T18:38:41.085Z,27.20
2018-08-16T18:41:16.518Z,27.00
2018-08-16T18:43:52.879Z,26.90
2018-08-16T18:46:38.849Z,26.70
2018-08-16T18:49:28.043Z,26.70
2018-08-16T18:52:11.474Z,26.40
2018-08-16T18:54:49.375Z,26.10
2018-08-16T19:00:18.079Z,25.80
2018-08-16T19:02:59.361Z,25.70
2018-08-16T19:05:47.610Z,25.60
2018-08-16T19:08:15.438Z,25.40
2018-08-16T19:10:57.370Z,25.20
2018-08-16T19:13:36.808Z,25.10
2018-08-16T19:19:05.805Z,24.90
2018-08-16T19:21:47.104Z,24.70
2018-08-16T19:24:28.081Z,24.60
2018-08-16T19:27:08.499Z,24.50
2018-08-16T19:29:52.212Z,24.50
2018-08-16T19:32:30.392Z,24.40
2018-08-16T19:35:10.537Z,24.40
2018-08-16T19:37:51.889Z,24.30
2018-08-16T19:40:32.391Z,24.20
2018-08-16T19:43:08.659Z,24.10
2018-08-16T19:45:49.933Z,24.00
2018-08-16T19:48:32.570Z,23.90
2018-08-16T19:51:12.627Z,23.90
2018-08-16T19:59:32.553Z,23.90
2018-08-16T20:02:09.101Z,23.70
2018-08-16T20:04:51.604Z,23.80
2018-08-16T20:07:30.825Z,23.80
2018-08-16T20:10:08.333Z,23.80
2018-08-16T20:12:37.692Z,23.70
2018-08-16T20:15:20.142Z,23.60
2018-08-16T20:17:48.588Z,23.50
2018-08-16T20:20:28.575Z,23.50
2018-08-16T20:22:56.358Z,23.50
2018-08-16T20:25:24.210Z,23.40
2018-08-16T20:27:51.940Z,23.30
2018-08-16T20:30:33.945Z,23.30
2018-08-16T20:33:12.302Z,23.30
2018-08-16T20:35:48.341Z,23.30
2018-08-16T20:38:16.524Z,23.30
2018-08-16T20:40:44.304Z,23.30
2018-08-16T20:43:23.309Z,23.30
2018-08-16T20:46:06.060Z,23.20
2018-08-16T20:48:47.408Z,23.50
2018-08-16T20:51:28.792Z,23.30
2018-08-16T20:54:08.159Z,23.30
2018-08-16T21:02:21.651Z,23.30
2018-08-16T21:04:49.416Z,23.30
2018-08-16T21:07:17.235Z,23.30
2018-08-16T21:09:55.543Z,23.20
2018-08-16T21:12:35.667Z,23.30
2018-08-16T21:15:15.117Z,23.20
2018-08-16T21:17:49.293Z,23.10
2018-08-16T21:20:25.929Z,23.00
2018-08-16T21:23:06.136Z,23.00
2018-08-16T21:25:48.508Z,22.90
2018-08-16T21:31:21.280Z,22.90
2018-08-16T21:34:02.646Z,22.80
2018-08-16T21:36:42.215Z,22.70
2018-08-16T21:39:18.332Z,22.70
2018-08-16T21:41:58.785Z,22.80
2018-08-16T21:47:30.548Z,22.70
2018-08-16T21:50:13.238Z,22.70
2018-08-16T21:55:46.547Z,22.60
2018-08-16T21:58:26.293Z,22.50
2018-08-16T22:01:10.650Z,22.40
2018-08-16T22:03:48.833Z,22.40
2018-08-16T22:06:34.439Z,22.30
2018-08-16T22:12:06.219Z,22.40
2018-08-16T22:14:44.129Z,22.40
2018-08-16T22:17:25.095Z,22.50
2018-08-16T22:19:53.556Z,22.30
2018-08-16T22:22:28.598Z,22.30
2018-08-16T22:25:05.286Z,22.30
2018-08-16T22:27:33.324Z,22.20
2018-08-16T22:30:01.064Z,22.20
2018-08-16T22:32:28.876Z,22.20
2018-08-16T22:34:56.616Z,22.20
2018-08-16T22:37:24.372Z,22.30
2018-08-16T22:39:52.165Z,22.30
2018-08-16T22:42:25.475Z,22.20
2018-08-16T22:45:06.611Z,22.20
2018-08-16T22:47:45.967Z,22.30
2018-08-16T22:50:29.325Z,22.20
2018-08-16T22:53:09.691Z,22.20
2018-08-16T22:55:50.050Z,22.10
2018-08-16T22:58:17.817Z,22.10
2018-08-16T23:00:45.608Z,22.00
2018-08-16T23:03:13.469Z,22.10
2018-08-16T23:05:50.623Z,22.00
2018-08-16T23:08:19.192Z,21.90
2018-08-16T23:10:50.128Z,22.00
2018-08-16T23:13:31.735Z,21.90
2018-08-16T23:16:13.631Z,21.90
2018-08-16T23:18:49.219Z,21.90
2018-08-16T23:21:28.825Z,22.00
2018-08-16T23:24:06.110Z,22.10
2018-08-16T23:26:48.621Z,22.00
2018-08-16T23:29:29.659Z,21.90
2018-08-16T23:31:57.440Z,21.80
2018-08-16T23:34:29.080Z,21.70
2018-08-16T23:36:56.844Z,21.70
2018-08-16T23:39:40.314Z,21.80
2018-08-16T23:42:08.924Z,21.80
2018-08-16T23:44:36.842Z,21.60
2018-08-16T23:47:04.711Z,21.40
2018-08-16T23:49:32.479Z,21.60
2018-08-16T23:52:10.796Z,21.60
2018-08-16T23:54:53.133Z,21.60
2018-08-16T23:57:36.524Z,21.50
